sensor_id;sensor_type;location;lat;lon;timestamp;P1;durP1;ratioP1;P2;durP2;ratioP2
14316;SDS011;7242;50.858;6.586;2023-06-14T00:00:52;6.03;;;4.70;;
14316;SDS011;7242;50.858;6.586;2023-06-14T00:03:56;5.20;;;4.70;;
14316;SDS011;7242;50.858;6.586;2023-06-14T00:06:57;6.60;;;4.90;;
14316;SDS011;7242;50.858;6.586;2023-06-14T00:09:58;5.50;;;5.00;;
14316;SDS011;7242;50.858;6.586;2023-06-14T00:12:59;5.57;;;4.70;;
14316;SDS011;7242;50.858;6.586;2023-06-14T00:16:00;5.50;;;4.63;;
14316;SDS011;7242;50.858;6.586;2023-06-14T00:19:01;5.30;;;4.80;;
14316;SDS011;7242;50.858;6.586;2023-06-14T00:22:05;6.03;;;4.93;;
14316;SDS011;7242;50.858;6.586;2023-06-14T00:25:06;5.23;;;4.50;;
14316;SDS011;7242;50.858;6.586;2023-06-14T00:28:07;5.37;;;4.87;;
14316;SDS011;7242;50.858;6.586;2023-06-14T00:31:09;4.90;;;4.43;;
14316;SDS011;7242;50.858;6.586;2023-06-14T00:34:09;5.63;;;5.20;;
14316;SDS011;7242;50.858;6.586;2023-06-14T00:37:10;5.03;;;4.57;;
14316;SDS011;7242;50.858;6.586;2023-06-14T00:40:11;5.67;;;4.60;;
14316;SDS011;7242;50.858;6.586;2023-06-14T00:43:12;5.37;;;4.87;;
14316;SDS011;7242;50.858;6.586;2023-06-14T00:46:14;7.23;;;5.33;;
14316;SDS011;7242;50.858;6.586;2023-06-14T00:49:15;5.67;;;4.83;;
14316;SDS011;7242;50.858;6.586;2023-06-14T00:52:17;5.67;;;5.17;;
14316;SDS011;7242;50.858;6.586;2023-06-14T00:55:19;5.10;;;4.70;;
14316;SDS011;7242;50.858;6.586;2023-06-14T00:58:20;6.50;;;5.20;;
14316;SDS011;7242;50.858;6.586;2023-06-14T01:01:22;6.60;;;5.53;;
14316;SDS011;7242;50.858;6.586;2023-06-14T01:04:24;5.70;;;5.20;;
14316;SDS011;7242;50.858;6.586;2023-06-14T01:07:40;5.47;;;4.97;;
14316;SDS011;7242;50.858;6.586;2023-06-14T01:14:02;5.80;;;5.30;;
14316;SDS011;7242;50.858;6.586;2023-06-14T01:17:03;5.80;;;5.20;;
14316;SDS011;7242;50.858;6.586;2023-06-14T01:20:05;5.80;;;5.30;;
14316;SDS011;7242;50.858;6.586;2023-06-14T01:23:10;5.40;;;4.90;;
14316;SDS011;7242;50.858;6.586;2023-06-14T01:26:12;6.00;;;5.20;;
14316;SDS011;7242;50.858;6.586;2023-06-14T01:29:13;5.43;;;4.93;;
14316;SDS011;7242;50.858;6.586;2023-06-14T01:32:19;6.43;;;4.80;;
14316;SDS011;7242;50.858;6.586;2023-06-14T01:35:20;5.77;;;5.17;;
14316;SDS011;7242;50.858;6.586;2023-06-14T01:38:23;6.57;;;5.17;;
14316;SDS011;7242;50.858;6.586;2023-06-14T01:41:26;5.60;;;5.10;;
14316;SDS011;7242;50.858;6.586;2023-06-14T01:44:28;7.47;;;5.40;;
14316;SDS011;7242;50.858;6.586;2023-06-14T01:47:30;5.10;;;4.57;;
14316;SDS011;7242;50.858;6.586;2023-06-14T01:50:31;5.70;;;5.10;;
14316;SDS011;7242;50.858;6.586;2023-06-14T01:53:33;7.60;;;5.37;;
14316;SDS011;7242;50.858;6.586;2023-06-14T01:56:33;5.77;;;5.13;;
14316;SDS011;7242;50.858;6.586;2023-06-14T01:59:34;5.60;;;5.10;;
14316;SDS011;7242;50.858;6.586;2023-06-14T02:02:36;8.67;;;5.37;;
14316;SDS011;7242;50.858;6.586;2023-06-14T02:05:37;5.57;;;4.80;;
14316;SDS011;7242;50.858;6.586;2023-06-14T02:08:39;5.60;;;4.93;;
14316;SDS011;7242;50.858;6.586;2023-06-14T02:11:40;6.70;;;4.80;;
14316;SDS011;7242;50.858;6.586;2023-06-14T02:14:41;9.13;;;5.03;;
14316;SDS011;7242;50.858;6.586;2023-06-14T02:17:42;5.83;;;5.23;;
14316;SDS011;7242;50.858;6.586;2023-06-14T02:20:44;6.07;;;5.20;;
14316;SDS011;7242;50.858;6.586;2023-06-14T02:23:45;5.37;;;4.90;;
14316;SDS011;7242;50.858;6.586;2023-06-14T02:26:46;5.93;;;5.33;;
14316;SDS011;7242;50.858;6.586;2023-06-14T02:29:48;5.57;;;5.03;;
14316;SDS011;7242;50.858;6.586;2023-06-14T02:32:50;6.13;;;4.77;;
14316;SDS011;7242;50.858;6.586;2023-06-14T02:35:51;5.57;;;4.97;;
14316;SDS011;7242;50.858;6.586;2023-06-14T02:38:52;4.80;;;4.40;;
14316;SDS011;7242;50.858;6.586;2023-06-14T02:41:54;6.00;;;4.90;;
14316;SDS011;7242;50.858;6.586;2023-06-14T02:44:55;6.13;;;5.50;;
14316;SDS011;7242;50.858;6.586;2023-06-14T02:47:56;5.50;;;5.03;;
14316;SDS011;7242;50.858;6.586;2023-06-14T02:50:56;7.37;;;5.50;;
14316;SDS011;7242;50.858;6.586;2023-06-14T02:53:57;5.80;;;5.20;;
14316;SDS011;7242;50.858;6.586;2023-06-14T02:56:58;5.80;;;5.30;;
14316;SDS011;7242;50.858;6.586;2023-06-14T02:59:59;5.93;;;5.40;;
14316;SDS011;7242;50.858;6.586;2023-06-14T03:03:00;6.07;;;5.33;;
14316;SDS011;7242;50.858;6.586;2023-06-14T03:06:02;5.87;;;5.37;;
14316;SDS011;7242;50.858;6.586;2023-06-14T03:09:04;6.63;;;5.70;;
14316;SDS011;7242;50.858;6.586;2023-06-14T03:12:06;6.77;;;5.50;;
14316;SDS011;7242;50.858;6.586;2023-06-14T03:15:08;6.57;;;5.50;;
14316;SDS011;7242;50.858;6.586;2023-06-14T03:18:14;6.40;;;5.80;;
14316;SDS011;7242;50.858;6.586;2023-06-14T03:21:15;6.13;;;5.60;;
14316;SDS011;7242;50.858;6.586;2023-06-14T03:24:17;6.43;;;5.80;;
14316;SDS011;7242;50.858;6.586;2023-06-14T03:27:20;6.77;;;6.00;;
14316;SDS011;7242;50.858;6.586;2023-06-14T03:30:21;6.20;;;5.60;;
14316;SDS011;7242;50.858;6.586;2023-06-14T03:33:23;7.47;;;5.90;;
14316;SDS011;7242;50.858;6.586;2023-06-14T03:36:26;6.37;;;5.77;;
14316;SDS011;7242;50.858;6.586;2023-06-14T03:39:29;7.00;;;6.30;;
14316;SDS011;7242;50.858;6.586;2023-06-14T03:42:30;6.90;;;5.97;;
14316;SDS011;7242;50.858;6.586;2023-06-14T03:45:32;6.80;;;6.10;;
14316;SDS011;7242;50.858;6.586;2023-06-14T03:48:33;8.77;;;5.83;;
14316;SDS011;7242;50.858;6.586;2023-06-14T03:51:36;7.00;;;6.30;;
14316;SDS011;7242;50.858;6.586;2023-06-14T03:54:37;6.57;;;5.97;;
14316;SDS011;7242;50.858;6.586;2023-06-14T03:57:38;6.77;;;6.17;;
14316;SDS011;7242;50.858;6.586;2023-06-14T04:00:43;6.87;;;6.13;;
14316;SDS011;7242;50.858;6.586;2023-06-14T04:03:45;8.60;;;6.17;;
14316;SDS011;7242;50.858;6.586;2023-06-14T04:06:47;7.07;;;6.37;;
14316;SDS011;7242;50.858;6.586;2023-06-14T04:09:48;7.63;;;6.70;;
14316;SDS011;7242;50.858;6.586;2023-06-14T04:12:49;6.87;;;6.27;;
14316;SDS011;7242;50.858;6.586;2023-06-14T04:15:51;8.60;;;6.90;;
14316;SDS011;7242;50.858;6.586;2023-06-14T04:19:00;7.73;;;6.87;;
14316;SDS011;7242;50.858;6.586;2023-06-14T04:22:02;8.87;;;6.93;;
14316;SDS011;7242;50.858;6.586;2023-06-14T04:25:06;6.90;;;6.20;;
14316;SDS011;7242;50.858;6.586;2023-06-14T04:28:08;6.90;;;6.30;;
14316;SDS011;7242;50.858;6.586;2023-06-14T04:31:09;7.67;;;6.60;;
14316;SDS011;7242;50.858;6.586;2023-06-14T04:34:12;9.03;;;6.57;;
14316;SDS011;7242;50.858;6.586;2023-06-14T04:37:20;7.83;;;6.80;;
14316;SDS011;7242;50.858;6.586;2023-06-14T04:40:21;7.30;;;6.60;;
14316;SDS011;7242;50.858;6.586;2023-06-14T04:43:23;7.90;;;6.73;;
14316;SDS011;7242;50.858;6.586;2023-06-14T04:46:26;9.40;;;7.17;;
14316;SDS011;7242;50.858;6.586;2023-06-14T04:49:29;7.70;;;6.93;;
14316;SDS011;7242;50.858;6.586;2023-06-14T04:52:32;7.77;;;7.03;;
14316;SDS011;7242;50.858;6.586;2023-06-14T04:55:35;8.07;;;7.27;;
14316;SDS011;7242;50.858;6.586;2023-06-14T04:58:39;7.87;;;7.07;;
14316;SDS011;7242;50.858;6.586;2023-06-14T05:01:41;11.10;;;7.50;;
14316;SDS011;7242;50.858;6.586;2023-06-14T05:04:42;7.53;;;6.80;;
14316;SDS011;7242;50.858;6.586;2023-06-14T05:07:43;9.30;;;8.20;;
14316;SDS011;7242;50.858;6.586;2023-06-14T05:10:44;13.90;;;8.17;;
14316;SDS011;7242;50.858;6.586;2023-06-14T05:13:44;9.73;;;7.90;;
14316;SDS011;7242;50.858;6.586;2023-06-14T05:16:47;9.00;;;7.40;;
14316;SDS011;7242;50.858;6.586;2023-06-14T05:19:48;8.87;;;7.67;;
14316;SDS011;7242;50.858;6.586;2023-06-14T05:22:50;8.60;;;7.57;;
14316;SDS011;7242;50.858;6.586;2023-06-14T05:25:54;8.93;;;7.63;;
14316;SDS011;7242;50.858;6.586;2023-06-14T05:28:55;11.47;;;7.63;;
14316;SDS011;7242;50.858;6.586;2023-06-14T05:31:56;9.47;;;7.67;;
14316;SDS011;7242;50.858;6.586;2023-06-14T05:34:57;10.57;;;7.37;;
14316;SDS011;7242;50.858;6.586;2023-06-14T05:37:57;8.10;;;6.60;;
14316;SDS011;7242;50.858;6.586;2023-06-14T05:40:59;8.47;;;7.67;;
14316;SDS011;7242;50.858;6.586;2023-06-14T05:43:59;12.30;;;7.10;;
14316;SDS011;7242;50.858;6.586;2023-06-14T05:47:00;8.63;;;7.17;;
14316;SDS011;7242;50.858;6.586;2023-06-14T05:50:01;8.40;;;5.93;;
14316;SDS011;7242;50.858;6.586;2023-06-14T05:53:02;7.43;;;6.63;;
14316;SDS011;7242;50.858;6.586;2023-06-14T05:56:03;8.80;;;6.20;;
14316;SDS011;7242;50.858;6.586;2023-06-14T05:59:04;8.47;;;5.93;;
14316;SDS011;7242;50.858;6.586;2023-06-14T06:02:05;10.57;;;6.10;;
14316;SDS011;7242;50.858;6.586;2023-06-14T06:05:06;7.07;;;5.43;;
14316;SDS011;7242;50.858;6.586;2023-06-14T06:08:07;13.10;;;6.00;;
14316;SDS011;7242;50.858;6.586;2023-06-14T06:11:07;7.43;;;5.40;;
14316;SDS011;7242;50.858;6.586;2023-06-14T06:14:10;7.23;;;5.40;;
14316;SDS011;7242;50.858;6.586;2023-06-14T06:17:12;7.70;;;5.37;;
14316;SDS011;7242;50.858;6.586;2023-06-14T06:20:12;5.00;;;4.50;;
14316;SDS011;7242;50.858;6.586;2023-06-14T06:23:13;6.87;;;4.50;;
14316;SDS011;7242;50.858;6.586;2023-06-14T06:26:14;5.97;;;4.40;;
14316;SDS011;7242;50.858;6.586;2023-06-14T06:29:15;8.17;;;4.20;;
14316;SDS011;7242;50.858;6.586;2023-06-14T06:32:17;6.93;;;4.00;;
14316;SDS011;7242;50.858;6.586;2023-06-14T06:35:18;6.87;;;3.70;;
14316;SDS011;7242;50.858;6.586;2023-06-14T06:38:18;4.33;;;3.43;;
14316;SDS011;7242;50.858;6.586;2023-06-14T06:41:19;4.83;;;3.40;;
14316;SDS011;7242;50.858;6.586;2023-06-14T06:44:20;6.30;;;3.47;;
14316;SDS011;7242;50.858;6.586;2023-06-14T06:47:23;5.37;;;3.07;;
14316;SDS011;7242;50.858;6.586;2023-06-14T06:50:25;4.87;;;2.97;;
14316;SDS011;7242;50.858;6.586;2023-06-14T06:53:25;7.43;;;3.07;;
14316;SDS011;7242;50.858;6.586;2023-06-14T06:56:26;3.80;;;2.80;;
14316;SDS011;7242;50.858;6.586;2023-06-14T06:59:28;9.97;;;3.30;;
14316;SDS011;7242;50.858;6.586;2023-06-14T07:02:30;6.28;;;2.80;;
14316;SDS011;7242;50.858;6.586;2023-06-14T07:05:31;3.13;;;2.72;;
14316;SDS011;7242;50.858;6.586;2023-06-14T07:08:32;4.35;;;2.92;;
14316;SDS011;7242;50.858;6.586;2023-06-14T07:11:33;3.17;;;2.70;;
14316;SDS011;7242;50.858;6.586;2023-06-14T07:14:34;5.25;;;2.65;;
14316;SDS011;7242;50.858;6.586;2023-06-14T07:17:35;3.83;;;2.70;;
14316;SDS011;7242;50.858;6.586;2023-06-14T07:20:36;3.70;;;2.58;;
14316;SDS011;7242;50.858;6.586;2023-06-14T07:23:38;8.27;;;3.10;;
14316;SDS011;7242;50.858;6.586;2023-06-14T07:26:39;4.78;;;2.70;;
14316;SDS011;7242;50.858;6.586;2023-06-14T07:29:40;5.82;;;2.92;;
14316;SDS011;7242;50.858;6.586;2023-06-14T07:32:41;6.05;;;2.67;;
14316;SDS011;7242;50.858;6.586;2023-06-14T07:35:42;6.15;;;2.88;;
14316;SDS011;7242;50.858;6.586;2023-06-14T07:38:43;4.93;;;2.83;;
14316;SDS011;7242;50.858;6.586;2023-06-14T07:41:44;6.20;;;2.83;;
14316;SDS011;7242;50.858;6.586;2023-06-14T07:44:44;5.15;;;2.50;;
14316;SDS011;7242;50.858;6.586;2023-06-14T07:47:45;6.03;;;2.70;;
14316;SDS011;7242;50.858;6.586;2023-06-14T07:50:46;6.10;;;2.40;;
14316;SDS011;7242;50.858;6.586;2023-06-14T07:53:47;5.63;;;2.50;;
14316;SDS011;7242;50.858;6.586;2023-06-14T07:56:48;7.88;;;2.80;;
14316;SDS011;7242;50.858;6.586;2023-06-14T07:59:50;2.63;;;2.30;;
14316;SDS011;7242;50.858;6.586;2023-06-14T08:02:51;5.10;;;2.50;;
14316;SDS011;7242;50.858;6.586;2023-06-14T08:05:58;4.20;;;2.40;;
14316;SDS011;7242;50.858;6.586;2023-06-14T08:09:00;4.75;;;2.40;;
14316;SDS011;7242;50.858;6.586;2023-06-14T08:12:01;4.25;;;2.10;;
14316;SDS011;7242;50.858;6.586;2023-06-14T08:15:02;2.92;;;2.00;;
14316;SDS011;7242;50.858;6.586;2023-06-14T08:18:02;6.78;;;1.88;;
14316;SDS011;7242;50.858;6.586;2023-06-14T08:21:03;2.92;;;2.25;;
14316;SDS011;7242;50.858;6.586;2023-06-14T08:24:04;3.05;;;1.98;;
14316;SDS011;7242;50.858;6.586;2023-06-14T08:27:05;6.05;;;2.33;;
14316;SDS011;7242;50.858;6.586;2023-06-14T08:30:07;4.38;;;2.15;;
14316;SDS011;7242;50.858;6.586;2023-06-14T08:33:08;6.20;;;2.20;;
14316;SDS011;7242;50.858;6.586;2023-06-14T08:36:09;3.50;;;1.95;;
14316;SDS011;7242;50.858;6.586;2023-06-14T08:39:11;2.58;;;2.25;;
14316;SDS011;7242;50.858;6.586;2023-06-14T08:42:14;2.72;;;2.25;;
14316;SDS011;7242;50.858;6.586;2023-06-14T08:45:15;4.20;;;2.00;;
14316;SDS011;7242;50.858;6.586;2023-06-14T08:48:16;4.97;;;2.40;;
14316;SDS011;7242;50.858;6.586;2023-06-14T08:51:20;2.90;;;1.87;;
14316;SDS011;7242;50.858;6.586;2023-06-14T08:54:23;4.33;;;2.43;;
14316;SDS011;7242;50.858;6.586;2023-06-14T08:57:27;2.83;;;2.30;;
14316;SDS011;7242;50.858;6.586;2023-06-14T09:00:30;3.77;;;2.00;;
14316;SDS011;7242;50.858;6.586;2023-06-14T09:03:32;4.93;;;2.03;;
14316;SDS011;7242;50.858;6.586;2023-06-14T09:06:33;5.60;;;2.77;;
14316;SDS011;7242;50.858;6.586;2023-06-14T09:09:39;3.13;;;2.10;;
14316;SDS011;7242;50.858;6.586;2023-06-14T09:12:42;2.40;;;2.10;;
14316;SDS011;7242;50.858;6.586;2023-06-14T09:15:43;3.70;;;1.87;;
14316;SDS011;7242;50.858;6.586;2023-06-14T09:18:45;2.53;;;1.70;;
14316;SDS011;7242;50.858;6.586;2023-06-14T09:21:49;3.33;;;1.70;;
14316;SDS011;7242;50.858;6.586;2023-06-14T09:24:53;2.83;;;1.73;;
14316;SDS011;7242;50.858;6.586;2023-06-14T09:27:54;3.00;;;1.60;;
14316;SDS011;7242;50.858;6.586;2023-06-14T09:30:55;2.57;;;1.30;;
14316;SDS011;7242;50.858;6.586;2023-06-14T09:33:56;2.40;;;1.40;;
14316;SDS011;7242;50.858;6.586;2023-06-14T09:36:57;3.17;;;1.63;;
14316;SDS011;7242;50.858;6.586;2023-06-14T09:39:58;2.37;;;1.43;;
14316;SDS011;7242;50.858;6.586;2023-06-14T09:43:00;1.77;;;1.47;;
14316;SDS011;7242;50.858;6.586;2023-06-14T09:46:00;3.73;;;1.60;;
14316;SDS011;7242;50.858;6.586;2023-06-14T09:49:02;1.60;;;1.43;;
14316;SDS011;7242;50.858;6.586;2023-06-14T09:52:03;2.03;;;1.50;;
14316;SDS011;7242;50.858;6.586;2023-06-14T09:55:08;2.67;;;1.50;;
14316;SDS011;7242;50.858;6.586;2023-06-14T09:58:12;1.67;;;1.57;;
14316;SDS011;7242;50.858;6.586;2023-06-14T10:01:15;1.97;;;1.60;;
14316;SDS011;7242;50.858;6.586;2023-06-14T10:04:18;5.33;;;1.60;;
14316;SDS011;7242;50.858;6.586;2023-06-14T10:07:21;3.47;;;1.67;;
14316;SDS011;7242;50.858;6.586;2023-06-14T10:10:23;4.00;;;1.50;;
14316;SDS011;7242;50.858;6.586;2023-06-14T10:13:25;3.10;;;1.87;;
14316;SDS011;7242;50.858;6.586;2023-06-14T10:16:31;2.27;;;1.43;;
14316;SDS011;7242;50.858;6.586;2023-06-14T10:22:58;2.60;;;1.70;;
14316;SDS011;7242;50.858;6.586;2023-06-14T10:26:00;1.87;;;1.60;;
14316;SDS011;7242;50.858;6.586;2023-06-14T10:29:10;2.23;;;1.60;;
14316;SDS011;7242;50.858;6.586;2023-06-14T10:32:11;1.73;;;1.37;;
14316;SDS011;7242;50.858;6.586;2023-06-14T10:35:13;1.93;;;1.60;;
14316;SDS011;7242;50.858;6.586;2023-06-14T10:38:17;4.20;;;1.50;;
14316;SDS011;7242;50.858;6.586;2023-06-14T10:41:34;3.07;;;1.60;;
14316;SDS011;7242;50.858;6.586;2023-06-14T10:47:41;3.57;;;1.67;;
14316;SDS011;7242;50.858;6.586;2023-06-14T10:50:42;4.27;;;1.90;;
14316;SDS011;7242;50.858;6.586;2023-06-14T10:53:44;4.80;;;1.90;;
14316;SDS011;7242;50.858;6.586;2023-06-14T10:56:46;2.87;;;1.80;;
14316;SDS011;7242;50.858;6.586;2023-06-14T10:59:48;3.80;;;1.83;;
14316;SDS011;7242;50.858;6.586;2023-06-14T11:03:05;5.07;;;1.73;;
14316;SDS011;7242;50.858;6.586;2023-06-14T11:06:14;2.97;;;1.80;;
14316;SDS011;7242;50.858;6.586;2023-06-14T11:12:37;3.87;;;1.60;;
14316;SDS011;7242;50.858;6.586;2023-06-14T11:15:45;4.23;;;1.73;;
14316;SDS011;7242;50.858;6.586;2023-06-14T11:18:48;4.13;;;1.50;;
14316;SDS011;7242;50.858;6.586;2023-06-14T11:21:50;2.77;;;1.50;;
14316;SDS011;7242;50.858;6.586;2023-06-14T11:24:51;5.03;;;1.60;;
14316;SDS011;7242;50.858;6.586;2023-06-14T11:27:52;3.77;;;1.80;;
14316;SDS011;7242;50.858;6.586;2023-06-14T11:31:02;2.13;;;1.73;;
14316;SDS011;7242;50.858;6.586;2023-06-14T11:34:04;4.73;;;1.40;;
14316;SDS011;7242;50.858;6.586;2023-06-14T11:37:06;2.70;;;1.43;;
14316;SDS011;7242;50.858;6.586;2023-06-14T11:40:07;5.60;;;1.40;;
14316;SDS011;7242;50.858;6.586;2023-06-14T11:43:09;4.37;;;1.80;;
14316;SDS011;7242;50.858;6.586;2023-06-14T11:46:13;2.13;;;1.77;;
14316;SDS011;7242;50.858;6.586;2023-06-14T11:49:22;2.73;;;1.70;;
14316;SDS011;7242;50.858;6.586;2023-06-14T11:52:24;2.80;;;1.60;;
14316;SDS011;7242;50.858;6.586;2023-06-14T11:55:25;2.07;;;1.60;;
14316;SDS011;7242;50.858;6.586;2023-06-14T11:58:26;2.60;;;1.50;;
14316;SDS011;7242;50.858;6.586;2023-06-14T12:01:29;2.90;;;1.60;;
14316;SDS011;7242;50.858;6.586;2023-06-14T12:04:31;4.13;;;1.77;;
14316;SDS011;7242;50.858;6.586;2023-06-14T12:07:31;4.13;;;1.60;;
14316;SDS011;7242;50.858;6.586;2023-06-14T12:10:38;3.07;;;1.77;;
14316;SDS011;7242;50.858;6.586;2023-06-14T12:13:40;6.33;;;1.67;;
14316;SDS011;7242;50.858;6.586;2023-06-14T12:16:42;2.20;;;1.80;;
14316;SDS011;7242;50.858;6.586;2023-06-14T12:19:43;3.27;;;1.90;;
14316;SDS011;7242;50.858;6.586;2023-06-14T12:22:58;4.77;;;2.00;;
14316;SDS011;7242;50.858;6.586;2023-06-14T12:26:01;3.90;;;2.00;;
14316;SDS011;7242;50.858;6.586;2023-06-14T12:29:04;2.17;;;1.80;;
14316;SDS011;7242;50.858;6.586;2023-06-14T12:32:05;3.40;;;1.80;;
14316;SDS011;7242;50.858;6.586;2023-06-14T12:35:06;2.63;;;1.77;;
14316;SDS011;7242;50.858;6.586;2023-06-14T12:38:07;3.23;;;1.80;;
14316;SDS011;7242;50.858;6.586;2023-06-14T12:41:08;3.37;;;1.70;;
14316;SDS011;7242;50.858;6.586;2023-06-14T12:44:10;1.83;;;1.70;;
14316;SDS011;7242;50.858;6.586;2023-06-14T12:47:11;3.27;;;1.73;;
14316;SDS011;7242;50.858;6.586;2023-06-14T12:50:13;2.80;;;1.50;;
14316;SDS011;7242;50.858;6.586;2023-06-14T12:53:14;4.23;;;1.63;;
14316;SDS011;7242;50.858;6.586;2023-06-14T12:56:15;4.40;;;2.07;;
14316;SDS011;7242;50.858;6.586;2023-06-14T12:59:16;2.33;;;1.77;;
14316;SDS011;7242;50.858;6.586;2023-06-14T13:02:18;2.87;;;1.67;;
14316;SDS011;7242;50.858;6.586;2023-06-14T13:05:22;2.33;;;1.60;;
14316;SDS011;7242;50.858;6.586;2023-06-14T13:08:23;2.47;;;1.70;;
14316;SDS011;7242;50.858;6.586;2023-06-14T13:11:24;2.30;;;1.60;;
14316;SDS011;7242;50.858;6.586;2023-06-14T13:14:25;3.70;;;1.90;;
14316;SDS011;7242;50.858;6.586;2023-06-14T13:17:26;2.77;;;1.83;;
14316;SDS011;7242;50.858;6.586;2023-06-14T13:20:32;2.10;;;1.40;;
14316;SDS011;7242;50.858;6.586;2023-06-14T13:23:33;3.47;;;1.60;;
14316;SDS011;7242;50.858;6.586;2023-06-14T13:26:34;3.23;;;1.60;;
14316;SDS011;7242;50.858;6.586;2023-06-14T13:29:36;1.97;;;1.60;;
14316;SDS011;7242;50.858;6.586;2023-06-14T13:32:37;3.30;;;1.80;;
14316;SDS011;7242;50.858;6.586;2023-06-14T13:35:38;2.33;;;1.50;;
14316;SDS011;7242;50.858;6.586;2023-06-14T13:38:38;1.70;;;1.60;;
14316;SDS011;7242;50.858;6.586;2023-06-14T13:41:39;2.97;;;1.80;;
14316;SDS011;7242;50.858;6.586;2023-06-14T13:44:40;4.47;;;1.73;;
14316;SDS011;7242;50.858;6.586;2023-06-14T13:47:41;3.83;;;1.70;;
14316;SDS011;7242;50.858;6.586;2023-06-14T13:50:42;2.07;;;1.80;;
14316;SDS011;7242;50.858;6.586;2023-06-14T13:53:45;4.47;;;1.70;;
14316;SDS011;7242;50.858;6.586;2023-06-14T13:56:46;3.87;;;1.60;;
14316;SDS011;7242;50.858;6.586;2023-06-14T13:59:47;1.50;;;1.40;;
14316;SDS011;7242;50.858;6.586;2023-06-14T14:02:48;4.40;;;1.60;;
14316;SDS011;7242;50.858;6.586;2023-06-14T14:05:50;2.40;;;1.40;;
14316;SDS011;7242;50.858;6.586;2023-06-14T14:08:51;4.17;;;1.47;;
14316;SDS011;7242;50.858;6.586;2023-06-14T14:11:52;2.33;;;1.27;;
14316;SDS011;7242;50.858;6.586;2023-06-14T14:14:53;3.57;;;1.43;;
14316;SDS011;7242;50.858;6.586;2023-06-14T14:17:55;3.23;;;1.33;;
14316;SDS011;7242;50.858;6.586;2023-06-14T14:20:57;1.67;;;1.20;;
14316;SDS011;7242;50.858;6.586;2023-06-14T14:23:58;1.20;;;1.10;;
14316;SDS011;7242;50.858;6.586;2023-06-14T14:26:59;1.87;;;1.20;;
14316;SDS011;7242;50.858;6.586;2023-06-14T14:30:00;2.90;;;1.10;;
14316;SDS011;7242;50.858;6.586;2023-06-14T14:33:01;1.40;;;1.30;;
14316;SDS011;7242;50.858;6.586;2023-06-14T14:36:02;3.20;;;1.30;;
14316;SDS011;7242;50.858;6.586;2023-06-14T14:39:04;6.20;;;1.50;;
14316;SDS011;7242;50.858;6.586;2023-06-14T14:42:05;1.57;;;1.20;;
14316;SDS011;7242;50.858;6.586;2023-06-14T14:45:07;2.13;;;1.10;;
14316;SDS011;7242;50.858;6.586;2023-06-14T14:48:09;1.50;;;1.20;;
14316;SDS011;7242;50.858;6.586;2023-06-14T14:51:10;2.53;;;1.20;;
14316;SDS011;7242;50.858;6.586;2023-06-14T14:54:10;3.30;;;1.50;;
14316;SDS011;7242;50.858;6.586;2023-06-14T14:57:11;2.63;;;1.10;;
14316;SDS011;7242;50.858;6.586;2023-06-14T15:00:12;4.80;;;1.57;;
14316;SDS011;7242;50.858;6.586;2023-06-14T15:03:14;1.87;;;1.50;;
14316;SDS011;7242;50.858;6.586;2023-06-14T15:06:15;1.93;;;1.47;;
14316;SDS011;7242;50.858;6.586;2023-06-14T15:09:17;2.53;;;1.40;;
14316;SDS011;7242;50.858;6.586;2023-06-14T15:12:18;3.03;;;1.40;;
14316;SDS011;7242;50.858;6.586;2023-06-14T15:15:21;2.50;;;1.30;;
14316;SDS011;7242;50.858;6.586;2023-06-14T15:18:22;3.23;;;1.40;;
14316;SDS011;7242;50.858;6.586;2023-06-14T15:21:23;1.60;;;1.40;;
14316;SDS011;7242;50.858;6.586;2023-06-14T15:24:24;1.50;;;1.40;;
14316;SDS011;7242;50.858;6.586;2023-06-14T15:27:25;2.90;;;1.50;;
14316;SDS011;7242;50.858;6.586;2023-06-14T15:30:27;2.10;;;1.40;;
14316;SDS011;7242;50.858;6.586;2023-06-14T15:33:29;3.47;;;1.37;;
14316;SDS011;7242;50.858;6.586;2023-06-14T15:36:30;3.73;;;1.50;;
14316;SDS011;7242;50.858;6.586;2023-06-14T15:39:30;1.83;;;1.37;;
14316;SDS011;7242;50.858;6.586;2023-06-14T15:42:32;2.33;;;1.60;;
14316;SDS011;7242;50.858;6.586;2023-06-14T15:45:32;4.80;;;1.63;;
14316;SDS011;7242;50.858;6.586;2023-06-14T15:48:33;3.43;;;1.53;;
14316;SDS011;7242;50.858;6.586;2023-06-14T15:51:34;5.30;;;1.70;;
14316;SDS011;7242;50.858;6.586;2023-06-14T15:54:35;2.70;;;1.50;;
14316;SDS011;7242;50.858;6.586;2023-06-14T15:57:36;2.47;;;1.40;;
14316;SDS011;7242;50.858;6.586;2023-06-14T16:00:37;3.20;;;1.87;;
14316;SDS011;7242;50.858;6.586;2023-06-14T16:03:38;1.70;;;1.53;;
14316;SDS011;7242;50.858;6.586;2023-06-14T16:06:39;1.93;;;1.57;;
14316;SDS011;7242;50.858;6.586;2023-06-14T16:09:40;1.53;;;1.43;;
14316;SDS011;7242;50.858;6.586;2023-06-14T16:12:41;1.97;;;1.60;;
14316;SDS011;7242;50.858;6.586;2023-06-14T16:15:41;2.57;;;1.67;;
14316;SDS011;7242;50.858;6.586;2023-06-14T16:18:42;1.90;;;1.60;;
14316;SDS011;7242;50.858;6.586;2023-06-14T16:21:43;2.90;;;1.53;;
14316;SDS011;7242;50.858;6.586;2023-06-14T16:24:44;4.00;;;1.80;;
14316;SDS011;7242;50.858;6.586;2023-06-14T16:27:45;1.90;;;1.60;;
14316;SDS011;7242;50.858;6.586;2023-06-14T16:30:46;2.77;;;1.57;;
14316;SDS011;7242;50.858;6.586;2023-06-14T16:33:48;2.90;;;1.70;;
14316;SDS011;7242;50.858;6.586;2023-06-14T16:36:55;1.50;;;1.40;;
14316;SDS011;7242;50.858;6.586;2023-06-14T16:39:55;1.97;;;1.63;;
14316;SDS011;7242;50.858;6.586;2023-06-14T16:42:56;1.87;;;1.53;;
14316;SDS011;7242;50.858;6.586;2023-06-14T16:45:56;3.07;;;1.80;;
14316;SDS011;7242;50.858;6.586;2023-06-14T16:48:58;4.47;;;1.80;;
14316;SDS011;7242;50.858;6.586;2023-06-14T16:51:59;1.97;;;1.70;;
14316;SDS011;7242;50.858;6.586;2023-06-14T16:55:00;2.03;;;1.40;;
14316;SDS011;7242;50.858;6.586;2023-06-14T16:58:01;4.40;;;1.50;;
14316;SDS011;7242;50.858;6.586;2023-06-14T17:01:02;4.00;;;1.77;;
14316;SDS011;7242;50.858;6.586;2023-06-14T17:04:03;4.10;;;1.83;;
14316;SDS011;7242;50.858;6.586;2023-06-14T17:07:04;2.23;;;1.47;;
14316;SDS011;7242;50.858;6.586;2023-06-14T17:10:05;1.80;;;1.63;;
14316;SDS011;7242;50.858;6.586;2023-06-14T17:13:06;3.70;;;2.03;;
14316;SDS011;7242;50.858;6.586;2023-06-14T17:16:07;1.70;;;1.60;;
14316;SDS011;7242;50.858;6.586;2023-06-14T17:19:08;5.43;;;1.60;;
14316;SDS011;7242;50.858;6.586;2023-06-14T17:22:08;2.53;;;1.50;;
14316;SDS011;7242;50.858;6.586;2023-06-14T17:25:09;2.57;;;1.67;;
14316;SDS011;7242;50.858;6.586;2023-06-14T17:28:10;2.23;;;1.70;;
14316;SDS011;7242;50.858;6.586;2023-06-14T17:31:11;1.67;;;1.57;;
14316;SDS011;7242;50.858;6.586;2023-06-14T17:34:12;3.80;;;1.57;;
14316;SDS011;7242;50.858;6.586;2023-06-14T17:37:13;1.83;;;1.60;;
14316;SDS011;7242;50.858;6.586;2023-06-14T17:40:14;3.33;;;1.70;;
14316;SDS011;7242;50.858;6.586;2023-06-14T17:43:15;2.93;;;1.73;;
14316;SDS011;7242;50.858;6.586;2023-06-14T17:46:16;11.97;;;2.30;;
14316;SDS011;7242;50.858;6.586;2023-06-14T17:49:17;2.47;;;2.10;;
14316;SDS011;7242;50.858;6.586;2023-06-14T17:52:23;3.80;;;2.90;;
14316;SDS011;7242;50.858;6.586;2023-06-14T17:55:24;4.43;;;2.27;;
14316;SDS011;7242;50.858;6.586;2023-06-14T20:00:50;2.33;;;2.17;;
14316;SDS011;7242;50.858;6.586;2023-06-14T20:03:51;2.37;;;1.90;;
14316;SDS011;7242;50.858;6.586;2023-06-14T20:06:52;3.37;;;2.10;;
14316;SDS011;7242;50.858;6.586;2023-06-14T20:09:55;2.23;;;1.90;;
14316;SDS011;7242;50.858;6.586;2023-06-14T20:12:56;2.03;;;1.83;;
14316;SDS011;7242;50.858;6.586;2023-06-14T20:15:57;2.77;;;2.10;;
14316;SDS011;7242;50.858;6.586;2023-06-14T20:18:58;2.10;;;2.00;;
14316;SDS011;7242;50.858;6.586;2023-06-14T20:22:00;2.57;;;2.10;;
14316;SDS011;7242;50.858;6.586;2023-06-14T20:25:01;2.27;;;2.00;;
14316;SDS011;7242;50.858;6.586;2023-06-14T20:28:02;2.30;;;2.10;;
14316;SDS011;7242;50.858;6.586;2023-06-14T20:31:03;3.20;;;2.17;;
14316;SDS011;7242;50.858;6.586;2023-06-14T20:34:03;2.33;;;2.00;;
14316;SDS011;7242;50.858;6.586;2023-06-14T20:37:05;2.93;;;2.20;;
14316;SDS011;7242;50.858;6.586;2023-06-14T20:40:07;3.67;;;2.20;;
14316;SDS011;7242;50.858;6.586;2023-06-14T20:43:18;2.13;;;2.00;;
14316;SDS011;7242;50.858;6.586;2023-06-14T20:46:19;2.37;;;1.90;;